Time;durP1;ratioP1;P1;durP2;ratioP2;P2;SDS_P1;SDS_P2;PMS_P1;PMS_P2;Temp;Humidity;BMP_temperature;BMP_pressure;BME280_temperature;BME280_humidity;BME280_pressure;Samples;Min_cycle;Max_cycle;Signal;HPM_P1;HPM_P2
2024/01/30 00:01:23;;;;;;;14.30;10.60;;;;;;;;;;5049309;28;20045;-54
2024/01/30 00:03:50;;;;;;;14.20;10.55;;;;;;;;;;5051035;28;20508;-49
2024/01/30 00:06:19;;;;;;;14.25;10.38;;;;;;;;;;5051083;28;20025;-53
2024/01/30 00:08:48;;;;;;;14.20;10.50;;;;;;;;;;5050992;28;20029;-53
2024/01/30 00:11:14;;;;;;;14.07;10.13;;;;;;;;;;5045081;28;20052;-50
2024/01/30 00:13:40;;;;;;;14.07;10.07;;;;;;;;;;4693517;28;9999847;-51
2024/01/30 00:16:07;;;;;;;14.18;10.35;;;;;;;;;;5027766;28;20018;-49
2024/01/30 00:18:33;;;;;;;14.10;10.30;;;;;;;;;;5027923;28;20064;-48
2024/01/30 00:20:58;;;;;;;14.25;10.45;;;;;;;;;;5027589;28;20023;-50
2024/01/30 00:23:25;;;;;;;14.25;10.60;;;;;;;;;;5026736;28;20033;-51
2024/01/30 00:25:51;;;;;;;14.23;10.80;;;;;;;;;;5010007;28;20488;-48
2024/01/30 00:28:17;;;;;;;14.30;10.57;;;;;;;;;;5027454;28;20091;-54
2024/01/30 00:30:43;;;;;;;14.30;10.60;;;;;;;;;;5027584;28;20052;-54
2024/01/30 00:33:09;;;;;;;14.18;10.43;;;;;;;;;;5009237;28;20075;-50
2024/01/30 00:35:35;;;;;;;14.40;10.80;;;;;;;;;;5026914;28;20021;-52
2024/01/30 00:38:01;;;;;;;14.20;10.50;;;;;;;;;;5027457;28;20642;-50
2024/01/30 00:40:27;;;;;;;14.10;10.07;;;;;;;;;;5027478;28;20129;-48
2024/01/30 00:42:53;;;;;;;14.02;9.88;;;;;;;;;;5027443;28;20026;-49
2024/01/30 00:45:19;;;;;;;14.20;10.43;;;;;;;;;;5046794;28;20036;-53
2024/01/30 00:47:45;;;;;;;14.20;10.43;;;;;;;;;;5047240;28;20439;-51
2024/01/30 00:50:11;;;;;;;14.07;9.98;;;;;;;;;;5047294;28;20104;-52
2024/01/30 00:52:39;;;;;;;13.95;9.90;;;;;;;;;;5046430;28;20108;-52
2024/01/30 00:55:05;;;;;;;13.90;9.43;;;;;;;;;;5047522;28;20037;-49
2024/01/30 00:57:31;;;;;;;13.82;9.60;;;;;;;;;;5049072;28;20036;-52
2024/01/30 00:59:57;;;;;;;13.88;9.68;;;;;;;;;;5103854;22;20040;-59
2024/01/30 01:02:23;;;;;;;13.90;9.57;;;;;;;;;;5087652;28;20517;-56
2024/01/30 01:04:49;;;;;;;13.88;9.55;;;;;;;;;;5088345;28;20351;-57
2024/01/30 01:07:15;;;;;;;13.95;9.70;;;;;;;;;;5088330;28;20082;-55
2024/01/30 01:09:41;;;;;;;13.85;9.40;;;;;;;;;;5088477;28;20028;-58
2024/01/30 01:12:07;;;;;;;13.75;9.23;;;;;;;;;;5087686;28;20044;-56
2024/01/30 01:14:33;;;;;;;13.88;9.45;;;;;;;;;;5086890;28;20016;-59
2024/01/30 01:16:59;;;;;;;13.68;9.00;;;;;;;;;;5088284;28;20012;-59
2024/01/30 01:19:25;;;;;;;13.90;9.50;;;;;;;;;;5088005;28;20024;-56
2024/01/30 01:21:52;;;;;;;13.75;9.20;;;;;;;;;;5088491;28;20109;-57
2024/01/30 01:24:18;;;;;;;13.77;9.18;;;;;;;;;;5089061;28;20047;-57
2024/01/30 01:26:43;;;;;;;13.80;9.18;;;;;;;;;;5089208;28;20539;-60
2024/01/30 01:29:11;;;;;;;13.70;9.20;;;;;;;;;;5088925;28;20028;-56
2024/01/30 01:31:43;;;;;;;13.93;9.65;;;;;;;;;;5087151;28;20109;-58
2024/01/30 01:34:12;;;;;;;13.77;9.25;;;;;;;;;;5089018;28;20099;-60
2024/01/30 01:36:38;;;;;;;13.93;9.80;;;;;;;;;;5088717;28;20056;-57
2024/01/30 01:39:05;;;;;;;13.85;9.68;;;;;;;;;;5087326;28;20129;-58
2024/01/30 01:41:31;;;;;;;13.95;9.80;;;;;;;;;;5087988;28;20016;-58
2024/01/30 01:43:57;;;;;;;14.00;9.90;;;;;;;;;;5087455;28;20068;-58
2024/01/30 01:46:23;;;;;;;14.00;9.82;;;;;;;;;;5088778;28;20434;-58
2024/01/30 01:48:50;;;;;;;13.98;9.80;;;;;;;;;;5087369;28;20031;-57
2024/01/30 01:51:16;;;;;;;13.88;9.48;;;;;;;;;;5088645;28;20397;-59
2024/01/30 01:53:42;;;;;;;13.85;9.43;;;;;;;;;;5088830;28;20029;-57
2024/01/30 01:56:09;;;;;;;13.93;9.57;;;;;;;;;;5088710;28;20040;-58
2024/01/30 01:58:35;;;;;;;13.90;9.60;;;;;;;;;;5088270;28;20040;-55
2024/01/30 02:01:02;;;;;;;13.85;9.38;;;;;;;;;;5089749;28;20024;-56
2024/01/30 02:03:28;;;;;;;13.90;9.60;;;;;;;;;;5092157;28;20477;-56
2024/01/30 02:05:54;;;;;;;13.90;9.50;;;;;;;;;;5091425;28;20034;-59
2024/01/30 02:08:20;;;;;;;13.82;9.32;;;;;;;;;;5092594;28;20454;-57
2024/01/30 02:10:46;;;;;;;13.93;9.48;;;;;;;;;;5092373;28;20047;-59
2024/01/30 02:13:12;;;;;;;13.90;9.60;;;;;;;;;;5092121;28;20055;-56
2024/01/30 02:15:38;;;;;;;13.95;9.73;;;;;;;;;;5092586;28;20350;-58
2024/01/30 02:18:05;;;;;;;14.00;9.77;;;;;;;;;;5092343;28;20012;-58
2024/01/30 02:20:31;;;;;;;14.10;10.05;;;;;;;;;;5090801;28;20028;-53
2024/01/30 02:23:01;;;;;;;13.98;9.98;;;;;;;;;;5090169;28;20578;-57
2024/01/30 02:25:46;;;;;;;13.98;9.65;;;;;;;;;;5091017;28;20077;-58
2024/01/30 02:28:15;;;;;;;13.88;9.57;;;;;;;;;;5092302;28;20094;-56
2024/01/30 02:30:43;;;;;;;14.18;10.40;;;;;;;;;;5092350;28;20089;-55
2024/01/30 02:33:09;;;;;;;14.10;10.05;;;;;;;;;;5090449;28;20482;-57
2024/01/30 02:35:35;;;;;;;14.00;10.00;;;;;;;;;;5092368;28;20089;-58
2024/01/30 02:38:02;;;;;;;16.42;13.02;;;;;;;;;;5092354;28;20086;-57
2024/01/30 02:40:28;;;;;;;14.00;10.02;;;;;;;;;;5092155;28;20028;-58
2024/01/30 02:42:54;;;;;;;13.98;9.75;;;;;;;;;;5089922;28;20054;-56
2024/01/30 02:45:19;;;;;;;14.10;10.25;;;;;;;;;;5092060;28;20465;-58
2024/01/30 02:47:46;;;;;;;14.10;10.07;;;;;;;;;;5091934;28;20024;-58
2024/01/30 02:50:13;;;;;;;14.10;10.25;;;;;;;;;;5091982;28;20523;-59
2024/01/30 02:52:39;;;;;;;14.20;10.38;;;;;;;;;;5091141;28;20020;-58
2024/01/30 02:55:05;;;;;;;16.15;11.07;;;;;;;;;;5091683;28;20390;-58
2024/01/30 02:57:31;;;;;;;14.23;10.52;;;;;;;;;;5091675;28;20531;-59
2024/01/30 02:59:57;;;;;;;14.35;10.82;;;;;;;;;;5091456;28;20103;-59
2024/01/30 03:02:23;;;;;;;14.20;10.23;;;;;;;;;;5091005;28;20115;-59
2024/01/30 03:04:49;;;;;;;14.30;10.60;;;;;;;;;;5091454;28;20040;-58
2024/01/30 03:07:15;;;;;;;14.30;10.73;;;;;;;;;;5091666;28;20028;-59
2024/01/30 03:09:44;;;;;;;14.35;10.80;;;;;;;;;;5090121;28;20076;-59
2024/01/30 03:12:11;;;;;;;14.23;10.50;;;;;;;;;;5089393;28;20059;-59
2024/01/30 03:14:37;;;;;;;14.25;10.57;;;;;;;;;;5091278;28;20017;-57
2024/01/30 03:17:03;;;;;;;14.20;10.45;;;;;;;;;;5090084;28;20088;-60
2024/01/30 03:19:29;;;;;;;14.18;10.38;;;;;;;;;;5090976;28;20024;-58
2024/01/30 03:21:55;;;;;;;14.20;10.40;;;;;;;;;;5090352;28;20402;-58
2024/01/30 03:24:21;;;;;;;14.20;10.30;;;;;;;;;;5091172;28;20035;-59
2024/01/30 03:26:47;;;;;;;14.18;10.25;;;;;;;;;;5090797;28;20020;-58
2024/01/30 03:29:13;;;;;;;14.10;10.20;;;;;;;;;;5091158;28;20164;-60
2024/01/30 03:31:39;;;;;;;14.20;10.40;;;;;;;;;;5090295;28;20028;-58
2024/01/30 03:34:05;;;;;;;14.20;10.35;;;;;;;;;;5090943;28;20469;-57
2024/01/30 03:36:33;;;;;;;14.20;10.27;;;;;;;;;;5090476;28;20024;-60
2024/01/30 03:38:59;;;;;;;14.20;10.35;;;;;;;;;;5091024;28;20103;-60
2024/01/30 03:41:25;;;;;;;14.20;10.50;;;;;;;;;;5090380;28;20035;-60
2024/01/30 03:43:51;;;;;;;14.00;9.60;;;;;;;;;;5090821;28;20487;-57
2024/01/30 03:46:17;;;;;;;13.90;9.60;;;;;;;;;;5090843;28;20024;-57
2024/01/30 03:48:43;;;;;;;13.85;9.50;;;;;;;;;;5090685;28;20024;-59
2024/01/30 03:51:14;;;;;;;13.90;9.70;;;;;;;;;;5089225;28;20040;-57
2024/01/30 03:53:41;;;;;;;13.90;9.38;;;;;;;;;;5089178;28;20486;-57
2024/01/30 03:56:07;;;;;;;13.98;9.73;;;;;;;;;;5089442;28;20490;-58
2024/01/30 03:58:32;;;;;;;13.95;9.68;;;;;;;;;;5090418;28;20093;-60
2024/01/30 04:00:58;;;;;;;13.95;9.77;;;;;;;;;;5090290;28;20103;-57
2024/01/30 04:03:24;;;;;;;13.93;9.80;;;;;;;;;;5090104;28;20527;-58
2024/01/30 04:05:52;;;;;;;13.95;9.73;;;;;;;;;;5090437;28;20150;-60
2024/01/30 04:08:18;;;;;;;15.05;11.27;;;;;;;;;;5090189;28;20028;-56
2024/01/30 04:10:44;;;;;;;14.00;9.90;;;;;;;;;;5088886;28;20028;-59
2024/01/30 04:13:10;;;;;;;13.90;9.55;;;;;;;;;;5089616;28;20038;-57
2024/01/30 04:15:36;;;;;;;13.98;9.77;;;;;;;;;;5090146;28;20020;-57
2024/01/30 04:18:02;;;;;;;13.95;9.80;;;;;;;;;;5089751;28;20020;-59
2024/01/30 04:20:28;;;;;;;14.00;9.90;;;;;;;;;;5089882;28;20107;-57
2024/01/30 04:22:54;;;;;;;14.00;9.80;;;;;;;;;;5089227;28;20028;-59
2024/01/30 04:25:20;;;;;;;14.00;9.82;;;;;;;;;;5088268;28;20069;-58
2024/01/30 04:27:46;;;;;;;13.90;9.60;;;;;;;;;;5089856;28;20478;-60
2024/01/30 04:30:12;;;;;;;14.10;9.95;;;;;;;;;;5088426;28;20175;-58
2024/01/30 04:32:38;;;;;;;13.98;9.93;;;;;;;;;;5088624;28;20031;-57
2024/01/30 04:35:04;;;;;;;14.00;9.77;;;;;;;;;;5088461;28;20028;-58
2024/01/30 04:37:31;;;;;;;13.90;9.68;;;;;;;;;;5090045;28;20031;-57
2024/01/30 04:39:57;;;;;;;13.95;9.70;;;;;;;;;;5088519;28;20435;-57
2024/01/30 04:42:23;;;;;;;13.98;9.88;;;;;;;;;;5087600;28;20410;-57
2024/01/30 04:44:49;;;;;;;14.00;9.80;;;;;;;;;;5089513;28;20070;-58
2024/01/30 04:47:15;;;;;;;13.88;9.60;;;;;;;;;;5089509;28;20028;-60
2024/01/30 04:49:41;;;;;;;13.98;9.77;;;;;;;;;;5089528;28;20057;-54
2024/01/30 04:52:07;;;;;;;13.90;9.57;;;;;;;;;;5088738;28;20115;-57
2024/01/30 04:54:33;;;;;;;13.93;9.63;;;;;;;;;;5089527;28;20493;-55
2024/01/30 04:56:59;;;;;;;13.90;9.40;;;;;;;;;;5089289;28;20566;-58
2024/01/30 04:59:25;;;;;;;13.95;9.70;;;;;;;;;;5089287;28;20047;-59
2024/01/30 05:01:51;;;;;;;13.77;9.23;;;;;;;;;;5087174;28;20547;-59
2024/01/30 05:04:17;;;;;;;13.90;9.77;;;;;;;;;;5088093;28;20046;-57
2024/01/30 05:06:43;;;;;;;13.90;9.70;;;;;;;;;;5088274;28;20086;-58
2024/01/30 05:09:09;;;;;;;13.90;9.60;;;;;;;;;;5087892;28;20065;-60
2024/01/30 05:11:39;;;;;;;13.90;9.60;;;;;;;;;;5087220;28;20035;-58
2024/01/30 05:14:05;;;;;;;13.85;9.45;;;;;;;;;;5087824;28;20050;-57
2024/01/30 05:16:31;;;;;;;13.80;9.32;;;;;;;;;;5087673;28;20028;-59
2024/01/30 05:18:58;;;;;;;13.85;9.43;;;;;;;;;;5089023;28;20436;-58
2024/01/30 05:21:24;;;;;;;13.90;9.57;;;;;;;;;;5088200;28;20092;-58
2024/01/30 05:23:50;;;;;;;13.90;9.63;;;;;;;;;;5087552;28;20470;-60
2024/01/30 05:26:16;;;;;;;13.93;9.75;;;;;;;;;;5088819;28;20028;-57
2024/01/30 05:28:44;;;;;;;13.90;9.65;;;;;;;;;;5088424;28;20103;-55
2024/01/30 05:31:10;;;;;;;13.98;9.82;;;;;;;;;;5088544;28;20028;-60
2024/01/30 05:33:36;;;;;;;13.98;9.90;;;;;;;;;;5088113;28;20500;-60
2024/01/30 05:36:02;;;;;;;13.75;9.13;;;;;;;;;;5087952;28;20032;-58
2024/01/30 05:38:31;;;;;;;13.85;9.60;;;;;;;;;;5088483;28;20083;-59
2024/01/30 05:40:58;;;;;;;13.88;9.50;;;;;;;;;;5088168;28;20016;-58
2024/01/30 05:43:24;;;;;;;13.82;9.45;;;;;;;;;;5087686;28;20059;-56
2024/01/30 05:45:50;;;;;;;13.88;9.48;;;;;;;;;;5088527;28;20074;-58
2024/01/30 05:48:16;;;;;;;14.05;10.07;;;;;;;;;;5088320;28;20060;-60
2024/01/30 05:50:42;;;;;;;14.10;10.05;;;;;;;;;;5088355;28;20448;-59
2024/01/30 05:53:08;;;;;;;14.10;10.10;;;;;;;;;;5086972;28;20067;-58
2024/01/30 05:55:34;;;;;;;14.00;9.82;;;;;;;;;;5088506;28;20021;-57
2024/01/30 05:58:00;;;;;;;13.90;9.73;;;;;;;;;;5088312;28;20028;-57
2024/01/30 06:00:27;;;;;;;13.90;9.70;;;;;;;;;;5088370;28;20048;-58
2024/01/30 06:02:53;;;;;;;13.90;9.55;;;;;;;;;;5086290;28;20028;-58
2024/01/30 06:05:19;;;;;;;13.93;9.63;;;;;;;;;;5088225;28;20082;-60
2024/01/30 06:07:45;;;;;;;14.20;9.75;;;;;;;;;;5088291;28;20469;-54
2024/01/30 06:10:11;;;;;;;13.82;9.45;;;;;;;;;;5086878;28;20031;-58
2024/01/30 06:12:37;;;;;;;13.95;9.70;;;;;;;;;;5087785;28;20024;-55
2024/01/30 06:15:03;;;;;;;13.95;9.80;;;;;;;;;;5088307;28;20077;-59
2024/01/30 06:17:29;;;;;;;14.07;10.05;;;;;;;;;;5088067;28;20020;-58
2024/01/30 06:19:55;;;;;;;14.30;10.35;;;;;;;;;;5088379;28;20419;-58
2024/01/30 06:22:21;;;;;;;13.98;9.82;;;;;;;;;;5086839;28;20024;-59
2024/01/30 06:24:50;;;;;;;14.10;10.20;;;;;;;;;;5088492;28;20092;-58
2024/01/30 06:27:17;;;;;;;14.18;10.45;;;;;;;;;;5088396;28;20234;-56
2024/01/30 06:29:44;;;;;;;14.20;10.48;;;;;;;;;;5087120;28;20028;-58
2024/01/30 06:32:10;;;;;;;14.20;10.50;;;;;;;;;;5087376;28;20020;-58
2024/01/30 06:34:36;;;;;;;14.30;10.77;;;;;;;;;;5088462;28;20028;-59
2024/01/30 06:37:02;;;;;;;14.10;10.20;;;;;;;;;;5088278;28;20024;-54
2024/01/30 06:39:28;;;;;;;14.20;10.32;;;;;;;;;;5088108;28;20081;-59
2024/01/30 06:41:54;;;;;;;14.25;10.48;;;;;;;;;;5087623;28;20055;-55
2024/01/30 06:44:20;;;;;;;14.30;10.80;;;;;;;;;;5086834;28;20115;-59
2024/01/30 06:46:46;;;;;;;14.30;10.70;;;;;;;;;;5088859;28;20469;-59
2024/01/30 06:49:12;;;;;;;14.40;11.07;;;;;;;;;;5090694;28;20187;-60
2024/01/30 06:51:38;;;;;;;14.18;10.30;;;;;;;;;;5091370;28;20031;-62
2024/01/30 06:54:04;;;;;;;14.25;10.43;;;;;;;;;;5090423;28;20051;-59
2024/01/30 06:56:30;;;;;;;14.25;10.45;;;;;;;;;;5091916;28;20020;-57
2024/01/30 06:58:58;;;;;;;14.25;10.57;;;;;;;;;;5092464;28;20491;-55
2024/01/30 07:01:29;;;;;;;14.18;10.45;;;;;;;;;;5091928;28;20024;-60
2024/01/30 07:03:55;;;;;;;14.18;10.25;;;;;;;;;;5092340;28;20030;-59
2024/01/30 07:06:22;;;;;;;14.07;10.15;;;;;;;;;;5091193;28;20370;-60
2024/01/30 07:08:48;;;;;;;14.30;10.60;;;;;;;;;;5091151;28;20093;-57
2024/01/30 07:11:19;;;;;;;14.30;10.68;;;;;;;;;;5090999;28;20390;-58
2024/01/30 07:13:46;;;;;;;14.27;10.70;;;;;;;;;;5091119;28;20367;-59
2024/01/30 07:16:12;;;;;;;14.40;10.90;;;;;;;;;;5090170;28;20389;-59
2024/01/30 07:18:38;;;;;;;14.20;10.40;;;;;;;;;;5091207;28;20028;-56
2024/01/30 07:21:04;;;;;;;14.20;10.30;;;;;;;;;;5090820;28;20379;-57
2024/01/30 07:23:30;;;;;;;14.70;11.75;;;;;;;;;;5090737;28;20440;-58
2024/01/30 07:25:56;;;;;;;14.30;10.77;;;;;;;;;;5091030;28;20047;-59
2024/01/30 07:28:22;;;;;;;14.30;10.70;;;;;;;;;;5090811;28;20466;-58
2024/01/30 07:30:48;;;;;;;14.25;10.50;;;;;;;;;;5090557;28;20141;-59
2024/01/30 07:33:14;;;;;;;14.20;10.25;;;;;;;;;;5090474;28;20027;-56
2024/01/30 07:35:40;;;;;;;14.40;11.10;;;;;;;;;;5091013;28;20028;-57
2024/01/30 07:38:06;;;;;;;14.27;10.52;;;;;;;;;;5090535;28;20472;-57
2024/01/30 07:40:33;;;;;;;14.30;10.70;;;;;;;;;;5090619;28;20031;-59
2024/01/30 07:42:59;;;;;;;14.40;10.80;;;;;;;;;;5089777;28;20035;-57
2024/01/30 07:45:27;;;;;;;14.40;10.90;;;;;;;;;;5090315;28;20047;-60
2024/01/30 07:47:53;;;;;;;14.43;11.00;;;;;;;;;;5090224;28;20076;-59
2024/01/30 07:50:19;;;;;;;14.30;10.68;;;;;;;;;;5090849;28;20389;-57
2024/01/30 07:52:45;;;;;;;14.20;10.43;;;;;;;;;;5088475;28;20020;-60
2024/01/30 07:55:12;;;;;;;14.20;10.48;;;;;;;;;;5090209;28;20024;-57
2024/01/30 07:57:42;;;;;;;14.60;11.07;;;;;;;;;;5090143;28;20020;-61
2024/01/30 08:00:09;;;;;;;14.27;10.65;;;;;;;;;;5089399;28;20028;-57
2024/01/30 08:02:35;;;;;;;14.20;10.35;;;;;;;;;;5088088;28;20562;-58
2024/01/30 08:05:01;;;;;;;14.07;10.15;;;;;;;;;;5090227;28;20084;-59
2024/01/30 08:07:29;;;;;;;14.00;10.13;;;;;;;;;;5074861;28;20032;-60
2024/01/30 08:09:55;;;;;;;14.70;11.55;;;;;;;;;;5069811;28;20080;-55
2024/01/30 08:12:21;;;;;;;14.35;10.85;;;;;;;;;;5069062;28;20063;-58
2024/01/30 08:14:47;;;;;;;15.30;12.77;;;;;;;;;;5069762;28;20067;-60
2024/01/30 08:17:13;;;;;;;14.25;10.55;;;;;;;;;;5069739;28;20028;-60
2024/01/30 08:19:39;;;;;;;13.98;9.95;;;;;;;;;;5069873;28;20238;-59
2024/01/30 08:22:05;;;;;;;14.07;10.10;;;;;;;;;;5068929;28;20402;-58
2024/01/30 08:24:31;;;;;;;14.30;10.75;;;;;;;;;;5069566;28;20032;-60
2024/01/30 08:26:58;;;;;;;14.10;10.25;;;;;;;;;;5069521;28;20031;-60
2024/01/30 08:29:24;;;;;;;14.30;10.65;;;;;;;;;;5069502;28;20032;-59
2024/01/30 08:31:50;;;;;;;14.32;10.77;;;;;;;;;;5068706;28;20027;-58
2024/01/30 08:34:16;;;;;;;14.30;10.70;;;;;;;;;;5069622;28;20081;-60
2024/01/30 08:36:42;;;;;;;14.13;10.27;;;;;;;;;;5069318;28;20028;-58
2024/01/30 08:39:08;;;;;;;14.07;10.10;;;;;;;;;;5069427;28;20053;-60
2024/01/30 08:41:34;;;;;;;14.23;10.52;;;;;;;;;;5068433;28;20452;-60
2024/01/30 08:44:00;;;;;;;14.27;10.77;;;;;;;;;;5069126;28;20094;-59
2024/01/30 08:46:26;;;;;;;14.30;10.70;;;;;;;;;;5069455;28;20079;-58
2024/01/30 08:48:53;;;;;;;14.27;10.55;;;;;;;;;;5069323;28;20349;-57
2024/01/30 08:51:19;;;;;;;14.30;10.65;;;;;;;;;;5068436;28;20071;-58
2024/01/30 08:53:44;;;;;;;14.30;10.70;;;;;;;;;;5069350;28;20158;-57
2024/01/30 08:56:11;;;;;;;14.35;10.70;;;;;;;;;;5069294;28;20067;-59
2024/01/30 08:58:37;;;;;;;14.20;10.35;;;;;;;;;;5068716;28;20106;-60
2024/01/30 09:01:05;;;;;;;14.23;10.68;;;;;;;;;;5068793;28;20409;-60
2024/01/30 09:03:31;;;;;;;14.50;11.05;;;;;;;;;;5050204;28;20040;-56
2024/01/30 09:05:57;;;;;;;14.10;10.00;;;;;;;;;;5069071;28;20025;-53
2024/01/30 09:08:23;;;;;;;14.15;10.35;;;;;;;;;;5050850;28;20066;-56
2024/01/30 09:10:49;;;;;;;17.33;11.40;;;;;;;;;;5050390;28;20076;-54
2024/01/30 09:13:16;;;;;;;14.10;10.07;;;;;;;;;;5070719;28;20528;-52
2024/01/30 09:15:42;;;;;;;13.98;9.90;;;;;;;;;;5068868;28;20051;-53
2024/01/30 09:18:08;;;;;;;13.93;9.77;;;;;;;;;;5068619;28;20047;-53
2024/01/30 09:20:34;;;;;;;14.05;9.95;;;;;;;;;;5074441;28;20024;-54
2024/01/30 09:23:00;;;;;;;14.93;10.30;;;;;;;;;;5087979;28;20259;-55
2024/01/30 09:25:26;;;;;;;14.10;10.15;;;;;;;;;;5088696;28;20101;-53
2024/01/30 09:27:52;;;;;;;13.95;9.77;;;;;;;;;;5088499;28;20020;-55
2024/01/30 09:30:18;;;;;;;14.00;9.75;;;;;;;;;;5070617;28;20043;-53
2024/01/30 09:32:44;;;;;;;14.00;10.13;;;;;;;;;;5067485;28;20249;-53
2024/01/30 09:35:10;;;;;;;13.90;9.52;;;;;;;;;;5066765;28;20033;-50
2024/01/30 09:37:36;;;;;;;14.30;9.90;;;;;;;;;;5068934;28;20020;-53
2024/01/30 09:40:02;;;;;;;14.13;10.20;;;;;;;;;;5068210;28;20032;-52
2024/01/30 09:42:34;;;;;;;14.02;10.02;;;;;;;;;;5067498;28;20040;-49
2024/01/30 09:45:00;;;;;;;13.95;9.63;;;;;;;;;;5068238;28;20017;-54
2024/01/30 09:47:27;;;;;;;14.32;10.32;;;;;;;;;;5086583;28;20497;-53
2024/01/30 09:49:53;;;;;;;14.10;10.38;;;;;;;;;;5088242;28;20024;-54
2024/01/30 09:52:19;;;;;;;15.85;12.43;;;;;;;;;;5087683;28;20173;-55
2024/01/30 09:54:45;;;;;;;15.27;10.00;;;;;;;;;;5088903;28;20028;-51
2024/01/30 09:57:12;;;;;;;15.38;10.32;;;;;;;;;;5088992;28;20047;-50
2024/01/30 09:59:38;;;;;;;14.55;10.55;;;;;;;;;;5089375;28;20036;-54
2024/01/30 10:02:04;;;;;;;14.75;9.68;;;;;;;;;;5088292;28;20538;-54
2024/01/30 10:04:31;;;;;;;13.88;9.48;;;;;;;;;;5089916;28;20035;-55
2024/01/30 10:06:58;;;;;;;14.20;10.45;;;;;;;;;;5089695;28;20074;-53
2024/01/30 10:09:25;;;;;;;13.98;9.77;;;;;;;;;;5089132;28;20110;-54
2024/01/30 10:11:51;;;;;;;14.30;10.30;;;;;;;;;;5087790;28;20038;-54
2024/01/30 10:14:17;;;;;;;14.05;10.07;;;;;;;;;;5088296;28;20111;-55
2024/01/30 10:16:45;;;;;;;17.00;10.80;;;;;;;;;;5070349;28;20113;-53
2024/01/30 10:19:11;;;;;;;14.18;10.20;;;;;;;;;;5088655;28;20058;-55
2024/01/30 10:21:37;;;;;;;14.13;10.27;;;;;;;;;;5088291;28;20068;-55
2024/01/30 10:24:04;;;;;;;14.10;10.20;;;;;;;;;;5092082;28;20044;-55
2024/01/30 10:26:33;;;;;;;14.60;11.15;;;;;;;;;;5092089;28;20035;-56
2024/01/30 10:28:59;;;;;;;14.05;9.98;;;;;;;;;;5092117;28;20016;-55
2024/01/30 10:31:25;;;;;;;14.27;10.23;;;;;;;;;;5091207;28;20028;-54
2024/01/30 10:33:51;;;;;;;14.02;9.90;;;;;;;;;;5091817;28;20099;-58
2024/01/30 10:36:18;;;;;;;14.27;9.93;;;;;;;;;;5091943;28;20391;-52
2024/01/30 10:38:46;;;;;;;14.00;9.88;;;;;;;;;;5091659;28;20469;-51
2024/01/30 10:41:16;;;;;;;14.95;10.57;;;;;;;;;;5091458;28;20027;-56
2024/01/30 10:43:42;;;;;;;14.20;10.10;;;;;;;;;;5091633;28;20028;-55
2024/01/30 10:46:15;;;;;;;14.00;10.00;;;;;;;;;;5091855;28;20059;-55
2024/01/30 10:48:44;;;;;;;14.00;9.50;;;;;;;;;;5091625;28;20091;-52
2024/01/30 10:51:10;;;;;;;13.85;9.50;;;;;;;;;;5073452;28;20112;-53
2024/01/30 10:53:37;;;;;;;15.05;10.40;;;;;;;;;;5091239;28;20033;-56
2024/01/30 10:56:04;;;;;;;13.80;9.32;;;;;;;;;;5091409;28;20108;-55
2024/01/30 10:58:30;;;;;;;13.80;9.30;;;;;;;;;;5091286;28;20445;-55
2024/01/30 11:00:56;;;;;;;14.00;9.80;;;;;;;;;;5072887;28;20052;-57
2024/01/30 11:03:23;;;;;;;13.80;9.20;;;;;;;;;;5090722;28;20031;-55
2024/01/30 11:05:52;;;;;;;14.00;8.75;;;;;;;;;;5073321;28;20032;-57
2024/01/30 11:08:25;;;;;;;19.90;9.55;;;;;;;;;;5072889;28;20139;-56
2024/01/30 11:10:55;;;;;;;17.85;16.10;;;;;;;;;;5090882;28;20031;-55
2024/01/30 11:13:21;;;;;;;13.68;8.68;;;;;;;;;;5089180;28;20343;-54
2024/01/30 11:15:48;;;;;;;13.60;8.50;;;;;;;;;;5053228;28;20027;-54
2024/01/30 11:18:24;;;;;;;13.60;8.10;;;;;;;;;;5070969;28;20131;-56
2024/01/30 11:20:50;;;;;;;14.45;8.40;;;;;;;;;;5071428;28;20478;-56
2024/01/30 11:23:16;;;;;;;13.30;7.85;;;;;;;;;;5070559;28;20040;-52
2024/01/30 11:25:45;;;;;;;12.65;7.55;;;;;;;;;;5070685;28;20118;-58
2024/01/30 11:28:17;;;;;;;12.75;7.43;;;;;;;;;;5070754;28;20100;-57
2024/01/30 11:30:43;;;;;;;13.27;7.60;;;;;;;;;;5052750;28;20495;-55
2024/01/30 11:33:11;;;;;;;14.13;9.40;;;;;;;;;;5068996;28;20108;-54
2024/01/30 11:35:39;;;;;;;15.07;9.15;;;;;;;;;;5070666;28;20024;-54
2024/01/30 11:38:05;;;;;;;14.63;10.40;;;;;;;;;;5070395;28;20024;-54
2024/01/30 11:40:32;;;;;;;13.85;8.48;;;;;;;;;;5070979;28;20103;-55
2024/01/30 11:42:59;;;;;;;14.95;9.85;;;;;;;;;;5070326;28;20032;-55
2024/01/30 11:45:26;;;;;;;13.75;9.00;;;;;;;;;;5070386;28;20127;-56
2024/01/30 11:47:52;;;;;;;14.00;9.45;;;;;;;;;;5070302;28;20072;-56
2024/01/30 11:50:19;;;;;;;13.70;9.00;;;;;;;;;;5070604;28;20098;-54
2024/01/30 11:52:45;;;;;;;14.20;9.30;;;;;;;;;;5051478;28;20068;-55
2024/01/30 11:55:11;;;;;;;16.70;10.38;;;;;;;;;;5070127;28;20180;-57
2024/01/30 11:57:37;;;;;;;13.35;8.18;;;;;;;;;;5070261;28;20024;-53
2024/01/30 12:00:10;;;;;;;13.57;8.60;;;;;;;;;;5070233;28;20040;-54
2024/01/30 12:02:39;;;;;;;16.17;11.45;;;;;;;;;;5069517;28;20032;-54
2024/01/30 12:05:06;;;;;;;13.77;8.98;;;;;;;;;;5070018;28;20279;-55
2024/01/30 12:07:32;;;;;;;17.70;11.25;;;;;;;;;;5069505;28;20039;-54
2024/01/30 12:09:58;;;;;;;15.45;9.93;;;;;;;;;;5086696;28;20508;-54
2024/01/30 12:12:28;;;;;;;21.25;10.50;;;;;;;;;;5088457;28;20039;-53
2024/01/30 12:14:54;;;;;;;14.00;8.80;;;;;;;;;;5081808;28;20024;-52
2024/01/30 12:17:31;;;;;;;14.10;9.82;;;;;;;;;;5089615;28;20611;-56
2024/01/30 12:20:16;;;;;;;14.20;8.95;;;;;;;;;;5084493;28;20028;-54
2024/01/30 12:22:43;;;;;;;14.00;9.15;;;;;;;;;;5083562;28;20288;-53
2024/01/30 12:25:09;;;;;;;13.68;8.68;;;;;;;;;;5087243;28;20067;-55
2024/01/30 12:27:36;;;;;;;15.73;9.00;;;;;;;;;;5086618;28;20047;-55
2024/01/30 12:30:05;;;;;;;15.65;10.13;;;;;;;;;;5051931;28;20032;-53
2024/01/30 12:32:31;;;;;;;14.23;9.45;;;;;;;;;;5078678;28;20240;-53
2024/01/30 12:34:57;;;;;;;14.75;9.38;;;;;;;;;;5089141;28;20032;-55
2024/01/30 12:37:24;;;;;;;15.25;10.60;;;;;;;;;;5089483;28;20486;-53
2024/01/30 12:39:50;;;;;;;13.60;8.50;;;;;;;;;;5088690;28;20039;-56
2024/01/30 12:42:16;;;;;;;13.52;8.50;;;;;;;;;;5088523;28;20092;-54
2024/01/30 12:44:42;;;;;;;13.52;8.57;;;;;;;;;;5087236;28;20097;-55
2024/01/30 12:47:11;;;;;;;31.58;10.68;;;;;;;;;;5089143;28;20036;-54
2024/01/30 12:49:37;;;;;;;13.60;8.70;;;;;;;;;;5088788;28;20318;-57
2024/01/30 12:52:03;;;;;;;14.98;9.63;;;;;;;;;;5088245;28;20043;-53
2024/01/30 12:54:29;;;;;;;13.60;8.60;;;;;;;;;;5089366;28;20091;-57
2024/01/30 12:56:56;;;;;;;13.75;8.93;;;;;;;;;;5089087;28;20459;-57
2024/01/30 12:59:22;;;;;;;13.60;8.75;;;;;;;;;;5102254;22;20043;-52
2024/01/30 13:01:48;;;;;;;15.68;9.18;;;;;;;;;;5071823;28;20039;-52
2024/01/30 13:04:15;;;;;;;14.00;9.48;;;;;;;;;;5090266;28;20335;-52
2024/01/30 13:06:41;;;;;;;13.57;8.65;;;;;;;;;;5090113;28;20027;-56
2024/01/30 13:09:07;;;;;;;16.08;11.20;;;;;;;;;;5089765;28;20020;-54
2024/01/30 13:11:34;;;;;;;16.92;11.15;;;;;;;;;;5088485;28;20020;-51
2024/01/30 13:14:00;;;;;;;13.55;8.48;;;;;;;;;;5084087;28;20093;-56
2024/01/30 13:16:26;;;;;;;14.20;9.77;;;;;;;;;;5068641;28;20023;-54
2024/01/30 13:18:52;;;;;;;22.85;10.80;;;;;;;;;;5069409;28;20036;-51
2024/01/30 13:21:18;;;;;;;13.60;8.80;;;;;;;;;;5068857;28;20016;-57
2024/01/30 13:23:44;;;;;;;13.52;8.38;;;;;;;;;;5069712;28;20036;-54
2024/01/30 13:26:10;;;;;;;16.60;10.13;;;;;;;;;;5074739;28;20500;-55
2024/01/30 13:28:36;;;;;;;13.77;9.18;;;;;;;;;;5089583;28;20115;-55
2024/01/30 13:31:02;;;;;;;13.80;8.98;;;;;;;;;;5089271;28;20031;-50
2024/01/30 13:33:28;;;;;;;13.45;8.35;;;;;;;;;;5089254;28;20028;-50
2024/01/30 13:35:54;;;;;;;15.80;10.75;;;;;;;;;;5089836;28;20386;-54
2024/01/30 13:38:20;;;;;;;15.05;10.05;;;;;;;;;;5090065;28;20034;-54
2024/01/30 13:40:46;;;;;;;14.10;9.88;;;;;;;;;;5088249;28;20482;-54
2024/01/30 13:43:12;;;;;;;14.23;9.00;;;;;;;;;;5089361;28;20170;-53
2024/01/30 13:45:38;;;;;;;14.52;9.30;;;;;;;;;;5089874;28;20465;-56
2024/01/30 13:48:04;;;;;;;13.70;9.00;;;;;;;;;;5089951;28;20032;-53
2024/01/30 13:50:30;;;;;;;13.90;9.40;;;;;;;;;;5089589;28;20020;-56
2024/01/30 13:52:56;;;;;;;14.77;10.60;;;;;;;;;;5089116;28;20020;-55
2024/01/30 13:55:23;;;;;;;13.60;8.68;;;;;;;;;;5089390;28;20024;-54
2024/01/30 13:57:49;;;;;;;14.48;9.57;;;;;;;;;;5093680;28;20099;-59
2024/01/30 14:00:16;;;;;;;15.27;9.70;;;;;;;;;;5093541;28;20243;-55
2024/01/30 14:02:42;;;;;;;14.98;9.85;;;;;;;;;;5092990;28;20028;-56
2024/01/30 14:05:08;;;;;;;14.27;9.20;;;;;;;;;;5093861;28;20496;-55
2024/01/30 14:07:34;;;;;;;14.10;9.85;;;;;;;;;;5093594;28;20104;-54
2024/01/30 14:10:00;;;;;;;13.60;8.70;;;;;;;;;;5092134;28;20024;-53
2024/01/30 14:12:26;;;;;;;13.82;8.98;;;;;;;;;;5091408;28;20028;-54
2024/01/30 14:14:52;;;;;;;15.68;10.23;;;;;;;;;;5093446;28;20512;-55
2024/01/30 14:17:18;;;;;;;14.35;9.98;;;;;;;;;;5075508;28;20024;-53
2024/01/30 14:19:44;;;;;;;15.20;9.98;;;;;;;;;;5093082;28;20254;-55